sensor_id;sensor_type;location;lat;lon;timestamp;P1;durP1;ratioP1;P2;durP2;ratioP2
1136;SDS011;557;48.466;7.950;2024-03-06T00:02:13;4.10;;;3.27;;
1136;SDS011;557;48.466;7.950;2024-03-06T00:04:42;3.77;;;3.37;;
1136;SDS011;557;48.466;7.950;2024-03-06T00:07:08;5.30;;;3.70;;
1136;SDS011;557;48.466;7.950;2024-03-06T00:09:35;6.10;;;3.57;;
1136;SDS011;557;48.466;7.950;2024-03-06T00:12:02;5.03;;;4.53;;
1136;SDS011;557;48.466;7.950;2024-03-06T00:14:31;4.47;;;3.57;;
1136;SDS011;557;48.466;7.950;2024-03-06T00:16:58;3.50;;;3.20;;
1136;SDS011;557;48.466;7.950;2024-03-06T00:19:25;3.30;;;2.63;;
1136;SDS011;557;48.466;7.950;2024-03-06T00:21:53;4.00;;;3.10;;
1136;SDS011;557;48.466;7.950;2024-03-06T00:24:20;3.30;;;3.00;;
1136;SDS011;557;48.466;7.950;2024-03-06T00:26:48;3.53;;;2.90;;
1136;SDS011;557;48.466;7.950;2024-03-06T00:29:15;4.67;;;3.03;;
1136;SDS011;557;48.466;7.950;2024-03-06T00:31:42;3.53;;;2.90;;
1136;SDS011;557;48.466;7.950;2024-03-06T00:34:09;3.83;;;2.87;;
1136;SDS011;557;48.466;7.950;2024-03-06T00:36:36;5.53;;;3.10;;
1136;SDS011;557;48.466;7.950;2024-03-06T00:39:04;4.90;;;3.57;;
1136;SDS011;557;48.466;7.950;2024-03-06T00:41:33;4.03;;;3.03;;
1136;SDS011;557;48.466;7.950;2024-03-06T00:44:00;4.40;;;2.97;;
1136;SDS011;557;48.466;7.950;2024-03-06T00:46:27;5.70;;;3.20;;
1136;SDS011;557;48.466;7.950;2024-03-06T00:48:53;2.83;;;2.50;;
1136;SDS011;557;48.466;7.950;2024-03-06T00:51:20;6.07;;;3.13;;
1136;SDS011;557;48.466;7.950;2024-03-06T00:53:47;5.20;;;3.30;;
1136;SDS011;557;48.466;7.950;2024-03-06T00:56:15;3.50;;;3.00;;
1136;SDS011;557;48.466;7.950;2024-03-06T00:58:42;4.80;;;3.50;;
1136;SDS011;557;48.466;7.950;2024-03-06T01:01:09;4.40;;;3.50;;
1136;SDS011;557;48.466;7.950;2024-03-06T01:03:37;5.07;;;3.63;;
1136;SDS011;557;48.466;7.950;2024-03-06T01:06:04;6.57;;;4.30;;
1136;SDS011;557;48.466;7.950;2024-03-06T01:08:30;7.27;;;5.23;;
1136;SDS011;557;48.466;7.950;2024-03-06T01:10:58;6.87;;;5.20;;
1136;SDS011;557;48.466;7.950;2024-03-06T01:13:26;5.90;;;4.77;;
1136;SDS011;557;48.466;7.950;2024-03-06T01:15:53;6.90;;;5.17;;
1136;SDS011;557;48.466;7.950;2024-03-06T01:18:19;7.30;;;4.90;;
1136;SDS011;557;48.466;7.950;2024-03-06T01:20:46;6.00;;;5.40;;
1136;SDS011;557;48.466;7.950;2024-03-06T01:23:13;6.37;;;5.60;;
1136;SDS011;557;48.466;7.950;2024-03-06T01:25:40;9.60;;;6.60;;
1136;SDS011;557;48.466;7.950;2024-03-06T01:28:07;9.07;;;6.40;;
1136;SDS011;557;48.466;7.950;2024-03-06T01:30:35;8.87;;;7.30;;
1136;SDS011;557;48.466;7.950;2024-03-06T01:33:01;9.90;;;6.30;;
1136;SDS011;557;48.466;7.950;2024-03-06T01:35:30;9.87;;;7.10;;
1136;SDS011;557;48.466;7.950;2024-03-06T01:37:56;9.07;;;6.67;;
1136;SDS011;557;48.466;7.950;2024-03-06T01:40:24;9.47;;;6.87;;
1136;SDS011;557;48.466;7.950;2024-03-06T01:42:50;8.17;;;5.63;;
1136;SDS011;557;48.466;7.950;2024-03-06T01:45:17;9.60;;;6.97;;
1136;SDS011;557;48.466;7.950;2024-03-06T01:47:47;8.03;;;6.50;;
1136;SDS011;557;48.466;7.950;2024-03-06T01:50:15;10.73;;;6.60;;
1136;SDS011;557;48.466;7.950;2024-03-06T01:52:42;9.90;;;6.60;;
1136;SDS011;557;48.466;7.950;2024-03-06T01:55:10;7.60;;;6.40;;
1136;SDS011;557;48.466;7.950;2024-03-06T01:57:40;8.87;;;6.77;;
1136;SDS011;557;48.466;7.950;2024-03-06T02:00:08;9.90;;;6.07;;
1136;SDS011;557;48.466;7.950;2024-03-06T02:02:39;7.13;;;6.47;;
1136;SDS011;557;48.466;7.950;2024-03-06T02:05:09;7.20;;;5.93;;
1136;SDS011;557;48.466;7.950;2024-03-06T02:07:36;6.47;;;5.80;;
1136;SDS011;557;48.466;7.950;2024-03-06T02:10:05;7.37;;;5.57;;
1136;SDS011;557;48.466;7.950;2024-03-06T02:12:35;6.60;;;5.33;;
1136;SDS011;557;48.466;7.950;2024-03-06T02:15:02;8.50;;;5.60;;
1136;SDS011;557;48.466;7.950;2024-03-06T02:17:30;7.30;;;5.60;;
1136;SDS011;557;48.466;7.950;2024-03-06T02:19:56;8.10;;;5.67;;
1136;SDS011;557;48.466;7.950;2024-03-06T02:22:25;7.23;;;6.20;;
1136;SDS011;557;48.466;7.950;2024-03-06T02:24:52;8.73;;;7.07;;
1136;SDS011;557;48.466;7.950;2024-03-06T02:27:19;9.93;;;7.37;;
1136;SDS011;557;48.466;7.950;2024-03-06T02:29:46;9.50;;;6.60;;
1136;SDS011;557;48.466;7.950;2024-03-06T02:32:12;10.13;;;6.40;;
1136;SDS011;557;48.466;7.950;2024-03-06T02:34:40;9.33;;;7.37;;
1136;SDS011;557;48.466;7.950;2024-03-06T02:37:06;10.63;;;8.03;;
1136;SDS011;557;48.466;7.950;2024-03-06T02:39:35;7.90;;;6.40;;
1136;SDS011;557;48.466;7.950;2024-03-06T02:42:01;9.47;;;7.20;;
1136;SDS011;557;48.466;7.950;2024-03-06T02:44:30;10.00;;;6.80;;
1136;SDS011;557;48.466;7.950;2024-03-06T02:46:56;11.90;;;6.80;;
1136;SDS011;557;48.466;7.950;2024-03-06T02:49:23;9.40;;;8.00;;
1136;SDS011;557;48.466;7.950;2024-03-06T02:51:50;7.83;;;6.17;;
1136;SDS011;557;48.466;7.950;2024-03-06T02:54:17;7.40;;;6.60;;
1136;SDS011;557;48.466;7.950;2024-03-06T02:56:45;8.90;;;6.50;;
1136;SDS011;557;48.466;7.950;2024-03-06T02:59:12;7.40;;;6.70;;
1136;SDS011;557;48.466;7.950;2024-03-06T03:01:39;9.10;;;6.57;;
1136;SDS011;557;48.466;7.950;2024-03-06T03:04:06;8.03;;;6.27;;
1136;SDS011;557;48.466;7.950;2024-03-06T03:06:33;8.63;;;5.97;;
1136;SDS011;557;48.466;7.950;2024-03-06T03:08:59;7.40;;;5.70;;
1136;SDS011;557;48.466;7.950;2024-03-06T03:11:28;8.53;;;6.67;;
1136;SDS011;557;48.466;7.950;2024-03-06T03:13:58;6.30;;;5.43;;
1136;SDS011;557;48.466;7.950;2024-03-06T03:16:25;7.00;;;5.50;;
1136;SDS011;557;48.466;7.950;2024-03-06T03:18:52;6.67;;;5.33;;
1136;SDS011;557;48.466;7.950;2024-03-06T03:21:19;7.60;;;5.77;;
1136;SDS011;557;48.466;7.950;2024-03-06T03:23:46;6.80;;;5.17;;
1136;SDS011;557;48.466;7.950;2024-03-06T03:26:13;7.53;;;5.70;;
1136;SDS011;557;48.466;7.950;2024-03-06T03:28:42;6.47;;;5.47;;
1136;SDS011;557;48.466;7.950;2024-03-06T03:31:10;6.50;;;5.43;;
1136;SDS011;557;48.466;7.950;2024-03-06T03:33:38;5.60;;;4.20;;
1136;SDS011;557;48.466;7.950;2024-03-06T03:36:05;6.63;;;5.10;;
1136;SDS011;557;48.466;7.950;2024-03-06T03:38:33;6.20;;;4.70;;
1136;SDS011;557;48.466;7.950;2024-03-06T03:41:03;6.90;;;5.20;;
1136;SDS011;557;48.466;7.950;2024-03-06T03:43:33;7.13;;;4.73;;
1136;SDS011;557;48.466;7.950;2024-03-06T03:46:00;8.80;;;5.40;;
1136;SDS011;557;48.466;7.950;2024-03-06T03:48:28;5.83;;;4.43;;
1136;SDS011;557;48.466;7.950;2024-03-06T03:50:55;5.37;;;4.40;;
1136;SDS011;557;48.466;7.950;2024-03-06T03:53:22;6.70;;;4.40;;
1136;SDS011;557;48.466;7.950;2024-03-06T03:55:48;6.40;;;4.73;;
1136;SDS011;557;48.466;7.950;2024-03-06T03:58:15;4.93;;;4.33;;
1136;SDS011;557;48.466;7.950;2024-03-06T04:00:42;5.00;;;4.50;;
1136;SDS011;557;48.466;7.950;2024-03-06T04:03:09;7.57;;;5.47;;
1136;SDS011;557;48.466;7.950;2024-03-06T04:05:37;5.60;;;5.00;;
1136;SDS011;557;48.466;7.950;2024-03-06T04:08:04;6.40;;;5.20;;
1136;SDS011;557;48.466;7.950;2024-03-06T04:10:31;6.90;;;5.17;;
1136;SDS011;557;48.466;7.950;2024-03-06T04:12:58;4.90;;;4.40;;
1136;SDS011;557;48.466;7.950;2024-03-06T04:15:25;5.80;;;4.40;;
1136;SDS011;557;48.466;7.950;2024-03-06T04:17:52;6.70;;;4.93;;
1136;SDS011;557;48.466;7.950;2024-03-06T04:20:19;5.70;;;4.97;;
1136;SDS011;557;48.466;7.950;2024-03-06T04:22:47;5.73;;;5.10;;
1136;SDS011;557;48.466;7.950;2024-03-06T04:25:16;8.07;;;5.40;;
1136;SDS011;557;48.466;7.950;2024-03-06T04:27:43;6.67;;;5.20;;
1136;SDS011;557;48.466;7.950;2024-03-06T04:30:10;6.40;;;5.60;;
1136;SDS011;557;48.466;7.950;2024-03-06T04:32:38;6.53;;;5.47;;
1136;SDS011;557;48.466;7.950;2024-03-06T04:35:05;7.00;;;5.23;;
1136;SDS011;557;48.466;7.950;2024-03-06T04:37:34;11.17;;;6.20;;
1136;SDS011;557;48.466;7.950;2024-03-06T04:40:03;6.03;;;5.33;;
1136;SDS011;557;48.466;7.950;2024-03-06T04:42:32;6.60;;;5.90;;
1136;SDS011;557;48.466;7.950;2024-03-06T04:45:01;7.23;;;5.83;;
1136;SDS011;557;48.466;7.950;2024-03-06T04:47:29;8.43;;;5.53;;
1136;SDS011;557;48.466;7.950;2024-03-06T04:49:56;6.27;;;5.47;;
1136;SDS011;557;48.466;7.950;2024-03-06T04:52:24;7.13;;;4.47;;
1136;SDS011;557;48.466;7.950;2024-03-06T04:54:50;6.33;;;5.43;;
1136;SDS011;557;48.466;7.950;2024-03-06T04:57:19;6.57;;;5.97;;
1136;SDS011;557;48.466;7.950;2024-03-06T04:59:45;6.10;;;5.30;;
1136;SDS011;557;48.466;7.950;2024-03-06T05:02:12;8.27;;;6.53;;
1136;SDS011;557;48.466;7.950;2024-03-06T05:04:39;7.70;;;6.90;;
1136;SDS011;557;48.466;7.950;2024-03-06T05:07:06;8.83;;;6.93;;
1136;SDS011;557;48.466;7.950;2024-03-06T05:09:33;8.73;;;6.90;;
1136;SDS011;557;48.466;7.950;2024-03-06T05:12:00;8.23;;;6.90;;
1136;SDS011;557;48.466;7.950;2024-03-06T05:14:28;7.33;;;6.50;;
1136;SDS011;557;48.466;7.950;2024-03-06T05:16:55;10.37;;;6.73;;
1136;SDS011;557;48.466;7.950;2024-03-06T05:19:22;8.70;;;6.77;;
1136;SDS011;557;48.466;7.950;2024-03-06T05:21:55;11.93;;;8.63;;
1136;SDS011;557;48.466;7.950;2024-03-06T05:24:22;11.80;;;7.70;;
1136;SDS011;557;48.466;7.950;2024-03-06T05:26:49;9.13;;;7.07;;
1136;SDS011;557;48.466;7.950;2024-03-06T05:29:16;11.00;;;6.60;;
1136;SDS011;557;48.466;7.950;2024-03-06T05:31:44;7.30;;;6.33;;
1136;SDS011;557;48.466;7.950;2024-03-06T05:34:11;7.97;;;7.17;;
1136;SDS011;557;48.466;7.950;2024-03-06T05:36:38;8.67;;;6.70;;
1136;SDS011;557;48.466;7.950;2024-03-06T05:39:04;8.53;;;6.70;;
1136;SDS011;557;48.466;7.950;2024-03-06T05:41:32;10.10;;;6.70;;
1136;SDS011;557;48.466;7.950;2024-03-06T05:43:59;10.30;;;7.00;;
1136;SDS011;557;48.466;7.950;2024-03-06T05:46:26;9.17;;;6.60;;
1136;SDS011;557;48.466;7.950;2024-03-06T05:48:54;8.70;;;6.90;;
1136;SDS011;557;48.466;7.950;2024-03-06T05:51:21;10.70;;;6.10;;
1136;SDS011;557;48.466;7.950;2024-03-06T05:53:47;9.33;;;6.60;;
1136;SDS011;557;48.466;7.950;2024-03-06T05:56:14;9.50;;;7.07;;
1136;SDS011;557;48.466;7.950;2024-03-06T05:58:43;11.00;;;7.00;;
1136;SDS011;557;48.466;7.950;2024-03-06T06:01:11;9.50;;;6.90;;
1136;SDS011;557;48.466;7.950;2024-03-06T06:03:38;6.47;;;5.70;;
1136;SDS011;557;48.466;7.950;2024-03-06T06:06:07;6.80;;;6.10;;
1136;SDS011;557;48.466;7.950;2024-03-06T06:08:34;13.00;;;6.80;;
1136;SDS011;557;48.466;7.950;2024-03-06T06:11:01;9.00;;;6.70;;
1136;SDS011;557;48.466;7.950;2024-03-06T06:13:29;9.63;;;6.67;;
1136;SDS011;557;48.466;7.950;2024-03-06T06:15:57;10.30;;;7.47;;
1136;SDS011;557;48.466;7.950;2024-03-06T06:18:24;8.70;;;6.17;;
1136;SDS011;557;48.466;7.950;2024-03-06T06:20:51;8.30;;;7.10;;
1136;SDS011;557;48.466;7.950;2024-03-06T06:23:20;10.50;;;7.00;;
1136;SDS011;557;48.466;7.950;2024-03-06T06:25:55;7.97;;;6.47;;
1136;SDS011;557;48.466;7.950;2024-03-06T06:28:22;10.57;;;6.70;;
1136;SDS011;557;48.466;7.950;2024-03-06T06:30:49;8.93;;;7.77;;
1136;SDS011;557;48.466;7.950;2024-03-06T06:33:17;9.70;;;7.77;;
1136;SDS011;557;48.466;7.950;2024-03-06T06:35:46;10.07;;;7.70;;
1136;SDS011;557;48.466;7.950;2024-03-06T06:38:12;11.87;;;7.60;;
1136;SDS011;557;48.466;7.950;2024-03-06T06:40:41;11.33;;;7.77;;
1136;SDS011;557;48.466;7.950;2024-03-06T06:43:08;10.60;;;6.63;;
1136;SDS011;557;48.466;7.950;2024-03-06T06:45:35;10.17;;;8.23;;
1136;SDS011;557;48.466;7.950;2024-03-06T06:48:03;9.60;;;7.40;;
1136;SDS011;557;48.466;7.950;2024-03-06T06:50:39;10.13;;;7.87;;
1136;SDS011;557;48.466;7.950;2024-03-06T06:53:06;13.40;;;8.17;;
1136;SDS011;557;48.466;7.950;2024-03-06T06:55:33;8.80;;;7.80;;
1136;SDS011;557;48.466;7.950;2024-03-06T06:58:02;8.87;;;7.60;;
1136;SDS011;557;48.466;7.950;2024-03-06T07:00:29;8.53;;;7.20;;
1136;SDS011;557;48.466;7.950;2024-03-06T07:05:30;9.33;;;7.60;;
1136;SDS011;557;48.466;7.950;2024-03-06T07:08:00;11.03;;;7.90;;
1136;SDS011;557;48.466;7.950;2024-03-06T07:10:27;10.40;;;7.73;;
1136;SDS011;557;48.466;7.950;2024-03-06T07:13:00;9.77;;;7.37;;
1136;SDS011;557;48.466;7.950;2024-03-06T07:15:29;8.60;;;7.67;;
1136;SDS011;557;48.466;7.950;2024-03-06T07:18:03;12.90;;;10.20;;
1136;SDS011;557;48.466;7.950;2024-03-06T07:20:36;9.30;;;8.20;;
1136;SDS011;557;48.466;7.950;2024-03-06T07:23:04;10.53;;;8.83;;
1136;SDS011;557;48.466;7.950;2024-03-06T07:25:30;11.03;;;7.97;;
1136;SDS011;557;48.466;7.950;2024-03-06T07:27:57;8.83;;;7.20;;
1136;SDS011;557;48.466;7.950;2024-03-06T07:30:24;10.20;;;7.93;;
1136;SDS011;557;48.466;7.950;2024-03-06T07:32:52;9.70;;;6.97;;
1136;SDS011;557;48.466;7.950;2024-03-06T07:35:19;9.90;;;6.63;;
1136;SDS011;557;48.466;7.950;2024-03-06T07:37:46;11.30;;;6.53;;
1136;SDS011;557;48.466;7.950;2024-03-06T07:40:13;6.80;;;5.60;;
1136;SDS011;557;48.466;7.950;2024-03-06T07:42:40;7.17;;;5.67;;
1136;SDS011;557;48.466;7.950;2024-03-06T07:45:09;12.20;;;6.33;;
1136;SDS011;557;48.466;7.950;2024-03-06T07:47:36;8.37;;;5.83;;
1136;SDS011;557;48.466;7.950;2024-03-06T07:52:43;6.67;;;5.47;;
1136;SDS011;557;48.466;7.950;2024-03-06T07:55:11;9.70;;;5.53;;
1136;SDS011;557;48.466;7.950;2024-03-06T07:57:38;6.00;;;5.00;;
1136;SDS011;557;48.466;7.950;2024-03-06T08:00:05;7.70;;;5.10;;
1136;SDS011;557;48.466;7.950;2024-03-06T08:02:41;7.60;;;5.00;;
1136;SDS011;557;48.466;7.950;2024-03-06T08:05:11;6.67;;;4.50;;
1136;SDS011;557;48.466;7.950;2024-03-06T08:07:38;9.10;;;5.33;;
1136;SDS011;557;48.466;7.950;2024-03-06T08:10:07;8.50;;;5.67;;
1136;SDS011;557;48.466;7.950;2024-03-06T08:12:39;7.10;;;5.40;;
1136;SDS011;557;48.466;7.950;2024-03-06T08:15:07;10.07;;;4.63;;
1136;SDS011;557;48.466;7.950;2024-03-06T08:17:36;9.10;;;5.20;;
1136;SDS011;557;48.466;7.950;2024-03-06T08:20:05;7.93;;;5.40;;
1136;SDS011;557;48.466;7.950;2024-03-06T08:22:34;5.67;;;5.07;;
1136;SDS011;557;48.466;7.950;2024-03-06T08:25:04;7.73;;;5.10;;
1136;SDS011;557;48.466;7.950;2024-03-06T08:27:33;11.10;;;5.07;;
1136;SDS011;557;48.466;7.950;2024-03-06T08:30:01;7.90;;;5.30;;
1136;SDS011;557;48.466;7.950;2024-03-06T08:32:29;8.83;;;6.43;;
1136;SDS011;557;48.466;7.950;2024-03-06T08:34:56;8.60;;;6.10;;
1136;SDS011;557;48.466;7.950;2024-03-06T08:37:24;6.50;;;5.03;;
1136;SDS011;557;48.466;7.950;2024-03-06T08:39:52;6.67;;;5.20;;
1136;SDS011;557;48.466;7.950;2024-03-06T08:42:19;10.33;;;5.80;;
1136;SDS011;557;48.466;7.950;2024-03-06T08:44:45;7.33;;;5.17;;
1136;SDS011;557;48.466;7.950;2024-03-06T08:47:12;7.53;;;5.43;;
1136;SDS011;557;48.466;7.950;2024-03-06T08:49:40;8.57;;;5.40;;
1136;SDS011;557;48.466;7.950;2024-03-06T08:52:07;7.57;;;5.70;;
1136;SDS011;557;48.466;7.950;2024-03-06T08:54:35;9.80;;;6.77;;
1136;SDS011;557;48.466;7.950;2024-03-06T08:57:09;7.60;;;6.30;;
1136;SDS011;557;48.466;7.950;2024-03-06T08:59:48;6.23;;;5.10;;
1136;SDS011;557;48.466;7.950;2024-03-06T09:02:15;6.97;;;6.17;;
1136;SDS011;557;48.466;7.950;2024-03-06T09:04:43;8.40;;;5.43;;
1136;SDS011;557;48.466;7.950;2024-03-06T09:07:11;7.30;;;6.20;;
1136;SDS011;557;48.466;7.950;2024-03-06T09:09:38;7.50;;;5.27;;
1136;SDS011;557;48.466;7.950;2024-03-06T09:12:06;7.37;;;6.33;;
1136;SDS011;557;48.466;7.950;2024-03-06T09:14:36;9.23;;;6.20;;
1136;SDS011;557;48.466;7.950;2024-03-06T09:17:11;9.07;;;6.33;;
1136;SDS011;557;48.466;7.950;2024-03-06T09:19:39;7.33;;;5.90;;
1136;SDS011;557;48.466;7.950;2024-03-06T09:22:08;9.30;;;7.60;;
1136;SDS011;557;48.466;7.950;2024-03-06T09:24:35;10.17;;;7.53;;
1136;SDS011;557;48.466;7.950;2024-03-06T09:27:03;9.13;;;7.10;;
1136;SDS011;557;48.466;7.950;2024-03-06T09:29:32;9.70;;;6.30;;
1136;SDS011;557;48.466;7.950;2024-03-06T09:32:00;8.47;;;6.10;;
1136;SDS011;557;48.466;7.950;2024-03-06T09:34:27;6.73;;;5.90;;
1136;SDS011;557;48.466;7.950;2024-03-06T09:36:54;8.53;;;6.20;;
1136;SDS011;557;48.466;7.950;2024-03-06T09:39:21;11.30;;;6.73;;
1136;SDS011;557;48.466;7.950;2024-03-06T09:41:48;7.30;;;6.20;;
1136;SDS011;557;48.466;7.950;2024-03-06T09:44:16;12.80;;;7.47;;
1136;SDS011;557;48.466;7.950;2024-03-06T09:46:45;13.07;;;8.93;;
1136;SDS011;557;48.466;7.950;2024-03-06T09:49:14;9.87;;;7.40;;
1136;SDS011;557;48.466;7.950;2024-03-06T09:51:42;7.57;;;6.77;;
1136;SDS011;557;48.466;7.950;2024-03-06T09:54:11;7.13;;;6.27;;
1136;SDS011;557;48.466;7.950;2024-03-06T09:56:40;10.60;;;6.10;;
1136;SDS011;557;48.466;7.950;2024-03-06T09:59:08;7.67;;;6.63;;
1136;SDS011;557;48.466;7.950;2024-03-06T10:01:35;6.77;;;5.70;;
1136;SDS011;557;48.466;7.950;2024-03-06T10:04:21;7.97;;;6.53;;
1136;SDS011;557;48.466;7.950;2024-03-06T10:06:49;8.03;;;6.50;;
1136;SDS011;557;48.466;7.950;2024-03-06T10:09:17;12.30;;;7.17;;
1136;SDS011;557;48.466;7.950;2024-03-06T10:11:44;6.50;;;5.50;;
1136;SDS011;557;48.466;7.950;2024-03-06T10:14:12;7.53;;;6.20;;
1136;SDS011;557;48.466;7.950;2024-03-06T10:16:51;8.27;;;6.20;;
1136;SDS011;557;48.466;7.950;2024-03-06T10:19:23;9.43;;;7.23;;
1136;SDS011;557;48.466;7.950;2024-03-06T10:21:52;9.97;;;6.57;;
1136;SDS011;557;48.466;7.950;2024-03-06T10:24:20;8.00;;;6.70;;
1136;SDS011;557;48.466;7.950;2024-03-06T10:26:49;7.80;;;6.33;;
1136;SDS011;557;48.466;7.950;2024-03-06T10:29:17;8.57;;;7.17;;
1136;SDS011;557;48.466;7.950;2024-03-06T10:31:51;8.27;;;6.90;;
1136;SDS011;557;48.466;7.950;2024-03-06T10:34:19;11.93;;;7.47;;
1136;SDS011;557;48.466;7.950;2024-03-06T10:36:48;10.33;;;7.53;;
1136;SDS011;557;48.466;7.950;2024-03-06T10:39:22;8.90;;;7.00;;
1136;SDS011;557;48.466;7.950;2024-03-06T10:41:51;7.43;;;6.60;;
1136;SDS011;557;48.466;7.950;2024-03-06T10:44:20;10.30;;;7.47;;
1136;SDS011;557;48.466;7.950;2024-03-06T10:46:51;8.80;;;7.97;;
1136;SDS011;557;48.466;7.950;2024-03-06T10:49:23;9.57;;;8.57;;
1136;SDS011;557;48.466;7.950;2024-03-06T10:51:54;8.40;;;7.60;;
1136;SDS011;557;48.466;7.950;2024-03-06T10:54:26;9.23;;;8.30;;
1136;SDS011;557;48.466;7.950;2024-03-06T10:56:53;8.73;;;7.93;;
1136;SDS011;557;48.466;7.950;2024-03-06T10:59:22;11.20;;;7.90;;
1136;SDS011;557;48.466;7.950;2024-03-06T11:01:52;11.60;;;7.83;;
1136;SDS011;557;48.466;7.950;2024-03-06T11:04:21;8.43;;;7.40;;
1136;SDS011;557;48.466;7.950;2024-03-06T11:06:49;10.70;;;7.90;;
1136;SDS011;557;48.466;7.950;2024-03-06T11:09:18;11.30;;;8.77;;
1136;SDS011;557;48.466;7.950;2024-03-06T11:11:48;8.80;;;7.90;;
1136;SDS011;557;48.466;7.950;2024-03-06T11:14:16;8.77;;;7.87;;
1136;SDS011;557;48.466;7.950;2024-03-06T11:16:57;9.90;;;8.90;;
1136;SDS011;557;48.466;7.950;2024-03-06T11:19:26;9.33;;;8.33;;
1136;SDS011;557;48.466;7.950;2024-03-06T11:21:53;9.50;;;8.40;;
1136;SDS011;557;48.466;7.950;2024-03-06T11:24:22;10.67;;;8.03;;
1136;SDS011;557;48.466;7.950;2024-03-06T11:26:50;10.00;;;8.37;;
1136;SDS011;557;48.466;7.950;2024-03-06T11:29:27;9.23;;;8.40;;
1136;SDS011;557;48.466;7.950;2024-03-06T11:31:57;9.53;;;8.57;;
1136;SDS011;557;48.466;7.950;2024-03-06T11:34:31;8.43;;;7.63;;
1136;SDS011;557;48.466;7.950;2024-03-06T11:36:58;11.47;;;8.30;;
1136;SDS011;557;48.466;7.950;2024-03-06T11:39:29;9.27;;;8.37;;
1136;SDS011;557;48.466;7.950;2024-03-06T11:42:01;8.90;;;8.00;;
1136;SDS011;557;48.466;7.950;2024-03-06T11:44:29;8.30;;;7.40;;
1136;SDS011;557;48.466;7.950;2024-03-06T11:46:59;10.60;;;8.27;;
1136;SDS011;557;48.466;7.950;2024-03-06T11:49:27;8.47;;;7.10;;
1136;SDS011;557;48.466;7.950;2024-03-06T11:51:57;8.43;;;7.63;;
1136;SDS011;557;48.466;7.950;2024-03-06T11:54:25;8.70;;;7.83;;
1136;SDS011;557;48.466;7.950;2024-03-06T11:56:55;7.80;;;6.83;;
1136;SDS011;557;48.466;7.950;2024-03-06T11:59:23;12.70;;;8.13;;
1136;SDS011;557;48.466;7.950;2024-03-06T12:01:50;9.70;;;8.50;;
1136;SDS011;557;48.466;7.950;2024-03-06T12:04:18;8.97;;;8.10;;
1136;SDS011;557;48.466;7.950;2024-03-06T12:06:46;9.00;;;8.13;;
1136;SDS011;557;48.466;7.950;2024-03-06T12:09:13;11.10;;;8.33;;
1136;SDS011;557;48.466;7.950;2024-03-06T12:11:40;12.13;;;8.60;;
1136;SDS011;557;48.466;7.950;2024-03-06T12:14:13;9.03;;;8.23;;
1136;SDS011;557;48.466;7.950;2024-03-06T12:16:43;8.70;;;7.90;;
1136;SDS011;557;48.466;7.950;2024-03-06T12:19:10;8.90;;;8.20;;
1136;SDS011;557;48.466;7.950;2024-03-06T12:21:37;9.90;;;8.40;;
1136;SDS011;557;48.466;7.950;2024-03-06T12:24:07;10.93;;;9.93;;
1136;SDS011;557;48.466;7.950;2024-03-06T12:26:35;10.07;;;9.30;;
1136;SDS011;557;48.466;7.950;2024-03-06T12:29:03;10.27;;;9.27;;
1136;SDS011;557;48.466;7.950;2024-03-06T12:31:33;9.63;;;9.00;;
1136;SDS011;557;48.466;7.950;2024-03-06T12:34:13;10.70;;;9.90;;
1136;SDS011;557;48.466;7.950;2024-03-06T12:36:44;10.30;;;9.47;;
1136;SDS011;557;48.466;7.950;2024-03-06T12:44:58;10.70;;;9.90;;
1136;SDS011;557;48.466;7.950;2024-03-06T12:47:48;12.37;;;11.23;;
1136;SDS011;557;48.466;7.950;2024-03-06T12:50:16;10.50;;;9.60;;
1136;SDS011;557;48.466;7.950;2024-03-06T12:52:49;10.70;;;9.60;;
1136;SDS011;557;48.466;7.950;2024-03-06T12:55:21;10.10;;;9.30;;
1136;SDS011;557;48.466;7.950;2024-03-06T12:57:48;10.50;;;9.40;;
1136;SDS011;557;48.466;7.950;2024-03-06T13:00:16;11.37;;;8.93;;
1136;SDS011;557;48.466;7.950;2024-03-06T13:02:45;10.07;;;9.23;;
1136;SDS011;557;48.466;7.950;2024-03-06T13:05:11;11.30;;;9.30;;
1136;SDS011;557;48.466;7.950;2024-03-06T13:07:39;10.93;;;9.93;;
1136;SDS011;557;48.466;7.950;2024-03-06T13:10:10;10.57;;;9.67;;
1136;SDS011;557;48.466;7.950;2024-03-06T13:12:37;10.83;;;9.93;;
1136;SDS011;557;48.466;7.950;2024-03-06T13:15:05;10.57;;;9.77;;
1136;SDS011;557;48.466;7.950;2024-03-06T13:17:33;13.33;;;10.97;;
1136;SDS011;557;48.466;7.950;2024-03-06T13:20:02;11.47;;;10.10;;
1136;SDS011;557;48.466;7.950;2024-03-06T13:22:29;10.50;;;9.70;;
1136;SDS011;557;48.466;7.950;2024-03-06T13:25:00;11.60;;;10.50;;
1136;SDS011;557;48.466;7.950;2024-03-06T13:27:27;10.17;;;9.27;;
1136;SDS011;557;48.466;7.950;2024-03-06T13:29:55;10.17;;;9.30;;
1136;SDS011;557;48.466;7.950;2024-03-06T13:32:23;12.00;;;9.50;;
1136;SDS011;557;48.466;7.950;2024-03-06T13:34:52;10.43;;;9.53;;
1136;SDS011;557;48.466;7.950;2024-03-06T13:37:27;11.37;;;10.20;;
1136;SDS011;557;48.466;7.950;2024-03-06T13:39:54;9.97;;;9.07;;
1136;SDS011;557;48.466;7.950;2024-03-06T13:42:25;9.43;;;8.63;;
1136;SDS011;557;48.466;7.950;2024-03-06T13:44:54;11.70;;;10.03;;
1136;SDS011;557;48.466;7.950;2024-03-06T13:47:26;9.27;;;8.47;;
1136;SDS011;557;48.466;7.950;2024-03-06T13:49:53;9.27;;;8.40;;
1136;SDS011;557;48.466;7.950;2024-03-06T13:52:22;9.40;;;8.60;;
1136;SDS011;557;48.466;7.950;2024-03-06T13:54:49;9.87;;;9.07;;
1136;SDS011;557;48.466;7.950;2024-03-06T13:57:18;9.57;;;8.70;;
1136;SDS011;557;48.466;7.950;2024-03-06T13:59:45;10.07;;;9.07;;
1136;SDS011;557;48.466;7.950;2024-03-06T14:02:12;9.60;;;8.60;;
1136;SDS011;557;48.466;7.950;2024-03-06T14:04:41;9.97;;;9.03;;
1136;SDS011;557;48.466;7.950;2024-03-06T14:07:08;9.47;;;8.63;;
1136;SDS011;557;48.466;7.950;2024-03-06T14:09:37;9.37;;;8.67;;
1136;SDS011;557;48.466;7.950;2024-03-06T14:14:56;10.37;;;9.47;;
1136;SDS011;557;48.466;7.950;2024-03-06T14:17:24;11.07;;;10.17;;
1136;SDS011;557;48.466;7.950;2024-03-06T14:19:51;11.80;;;10.70;;
1136;SDS011;557;48.466;7.950;2024-03-06T14:22:18;10.63;;;9.63;;
1136;SDS011;557;48.466;7.950;2024-03-06T14:24:46;9.70;;;8.80;;
1136;SDS011;557;48.466;7.950;2024-03-06T14:27:13;10.67;;;9.57;;
1136;SDS011;557;48.466;7.950;2024-03-06T14:29:40;10.07;;;8.93;;
1136;SDS011;557;48.466;7.950;2024-03-06T14:32:07;10.07;;;9.17;;
1136;SDS011;557;48.466;7.950;2024-03-06T14:34:40;11.87;;;10.60;;
1136;SDS011;557;48.466;7.950;2024-03-06T14:37:10;11.97;;;10.90;;
1136;SDS011;557;48.466;7.950;2024-03-06T14:39:51;10.30;;;9.30;;
1136;SDS011;557;48.466;7.950;2024-03-06T16:20:01;15.90;;;11.30;;
1136;SDS011;557;48.466;7.950;2024-03-06T16:22:30;14.90;;;10.13;;
1136;SDS011;557;48.466;7.950;2024-03-06T16:24:57;16.17;;;10.20;;
1136;SDS011;557;48.466;7.950;2024-03-06T16:27:24;14.80;;;11.03;;
1136;SDS011;557;48.466;7.950;2024-03-06T16:29:51;15.57;;;11.20;;
1136;SDS011;557;48.466;7.950;2024-03-06T16:32:18;23.03;;;16.93;;
1136;SDS011;557;48.466;7.950;2024-03-06T16:34:45;40.83;;;25.20;;
1136;SDS011;557;48.466;7.950;2024-03-06T16:37:13;18.50;;;13.40;;
1136;SDS011;557;48.466;7.950;2024-03-06T16:39:40;14.73;;;10.60;;
1136;SDS011;557;48.466;7.950;2024-03-06T16:42:06;15.87;;;10.47;;
1136;SDS011;557;48.466;7.950;2024-03-06T16:44:33;17.77;;;11.70;;
1136;SDS011;557;48.466;7.950;2024-03-06T16:47:03;16.40;;;11.00;;
1136;SDS011;557;48.466;7.950;2024-03-06T16:49:34;15.87;;;12.57;;
1136;SDS011;557;48.466;7.950;2024-03-06T16:52:00;17.00;;;12.63;;
1136;SDS011;557;48.466;7.950;2024-03-06T16:54:30;12.90;;;8.90;;
1136;SDS011;557;48.466;7.950;2024-03-06T16:56:58;12.33;;;9.80;;
1136;SDS011;557;48.466;7.950;2024-03-06T16:59:26;12.00;;;8.43;;
1136;SDS011;557;48.466;7.950;2024-03-06T17:01:53;15.87;;;10.93;;
1136;SDS011;557;48.466;7.950;2024-03-06T17:04:21;10.90;;;8.67;;
1136;SDS011;557;48.466;7.950;2024-03-06T17:06:48;14.93;;;9.77;;
1136;SDS011;557;48.466;7.950;2024-03-06T17:09:15;11.80;;;10.60;;
1136;SDS011;557;48.466;7.950;2024-03-06T17:11:44;12.77;;;10.37;;
1136;SDS011;557;48.466;7.950;2024-03-06T17:14:11;17.33;;;11.97;;
1136;SDS011;557;48.466;7.950;2024-03-06T17:16:38;18.40;;;14.17;;
1136;SDS011;557;48.466;7.950;2024-03-06T17:19:04;14.53;;;11.73;;
1136;SDS011;557;48.466;7.950;2024-03-06T17:21:31;12.37;;;10.17;;
1136;SDS011;557;48.466;7.950;2024-03-06T17:24:02;13.43;;;10.77;;